createdAt,value
2022-08-18T00:03:55.863Z,30.87
2022-08-18T00:08:10.022Z,31.63
2022-08-18T00:10:18.686Z,33.93
2022-08-18T00:12:21.561Z,35.70
2022-08-18T00:14:25.149Z,39.17
2022-08-18T00:16:28.703Z,37.90
2022-08-18T00:18:32.267Z,34.70
2022-08-18T00:20:35.829Z,36.27
2022-08-18T00:22:39.763Z,34.63
2022-08-18T00:24:48.530Z,35.00
2022-08-18T00:26:49.530Z,35.73
2022-08-18T00:28:53.241Z,35.27
2022-08-18T00:30:56.895Z,37.27
2022-08-18T00:35:20.688Z,31.50
2022-08-18T00:37:24.701Z,30.83
2022-08-18T00:39:30.031Z,30.70
2022-08-18T00:41:35.448Z,30.83
2022-08-18T00:43:42.658Z,29.30
2022-08-18T00:45:46.341Z,31.73
2022-08-18T00:47:49.799Z,29.40
2022-08-18T00:49:53.869Z,27.47
2022-08-18T00:51:58.160Z,31.30
2022-08-18T00:54:05.545Z,34.60
2022-08-18T00:56:11.751Z,28.20
2022-08-18T00:58:18.954Z,28.60
2022-08-18T01:00:23.177Z,31.17
2022-08-18T01:02:30.459Z,38.37
2022-08-18T01:04:37.980Z,28.70
2022-08-18T01:06:46.921Z,28.70
2022-08-18T01:08:50.582Z,29.07
2022-08-18T01:10:55.736Z,28.70
2022-08-18T01:12:59.487Z,29.47
2022-08-18T01:15:03.190Z,29.43
2022-08-18T01:17:25.081Z,31.37
2022-08-18T01:19:48.228Z,30.63
2022-08-18T01:21:57.754Z,31.23
2022-08-18T01:24:04.705Z,30.93
2022-08-18T01:28:25.060Z,29.37
2022-08-18T01:30:29.347Z,27.90
2022-08-18T01:32:32.934Z,27.23
2022-08-18T01:34:36.483Z,28.43
2022-08-18T01:36:42.009Z,29.27
2022-08-18T01:38:47.128Z,28.27
2022-08-18T01:41:24.378Z,28.87
2022-08-18T01:45:14.284Z,29.87
2022-08-18T01:47:47.981Z,29.03
2022-08-18T01:49:52.913Z,30.43
2022-08-18T01:51:56.801Z,30.97
2022-08-18T01:54:03.859Z,29.67
2022-08-18T01:58:40.596Z,32.53
2022-08-18T02:00:45.488Z,30.30
2022-08-18T02:02:57.986Z,29.77
2022-08-18T02:04:59.843Z,34.37
2022-08-18T02:07:07.149Z,34.10
2022-08-18T02:09:11.224Z,33.00
2022-08-18T02:11:14.941Z,37.80
2022-08-18T02:13:18.578Z,33.57
2022-08-18T02:15:22.428Z,31.17
2022-08-18T02:17:26.035Z,30.80
2022-08-18T02:19:31.544Z,28.93
2022-08-18T02:21:35.251Z,31.07
2022-08-18T02:23:39.353Z,35.80
2022-08-18T02:25:44.307Z,32.27
2022-08-18T02:27:47.942Z,31.73
2022-08-18T02:29:51.461Z,33.13
2022-08-18T02:31:55.443Z,35.00
2022-08-18T02:33:59.212Z,34.47
2022-08-18T02:36:03.213Z,38.87
2022-08-18T02:40:26.511Z,30.57
2022-08-18T02:42:30.476Z,30.37
2022-08-18T02:44:34.547Z,31.40
2022-08-18T02:46:39.550Z,30.17
2022-08-18T02:48:43.189Z,32.83
2022-08-18T02:50:46.695Z,33.67
2022-08-18T02:52:50.504Z,33.90
2022-08-18T02:54:54.077Z,34.53
2022-08-18T02:56:57.789Z,33.77
2022-08-18T03:01:23.013Z,38.53
2022-08-18T03:03:26.719Z,45.40
2022-08-18T03:05:30.220Z,49.93
2022-08-18T03:07:33.879Z,45.77
2022-08-18T03:09:37.455Z,42.70
2022-08-18T03:11:41.075Z,40.47
2022-08-18T03:13:46.644Z,37.43
2022-08-18T03:15:54.698Z,39.63
2022-08-18T03:17:55.650Z,45.07
2022-08-18T03:19:59.224Z,39.27
2022-08-18T03:22:24.271Z,38.10
2022-08-18T03:26:31.913Z,36.83
2022-08-18T03:28:35.535Z,39.83
2022-08-18T03:30:39.137Z,38.60
2022-08-18T03:32:45.687Z,39.60
2022-08-18T03:34:48.114Z,40.63
2022-08-18T03:36:52.124Z,41.87
2022-08-18T03:38:56.502Z,38.90
2022-08-18T03:40:59.979Z,41.10
2022-08-18T03:45:23.877Z,36.00
2022-08-18T03:47:27.607Z,37.43
2022-08-18T03:49:31.820Z,33.33
2022-08-18T03:51:36.287Z,37.70
2022-08-18T03:53:40.716Z,32.77
2022-08-18T03:55:44.404Z,36.27
2022-08-18T03:57:48.041Z,33.50
2022-08-18T03:59:51.644Z,35.90
2022-08-18T04:01:55.476Z,32.93
2022-08-18T04:06:16.820Z,35.97
2022-08-18T04:08:22.108Z,33.80
2022-08-18T04:10:26.303Z,33.43
2022-08-18T04:12:29.883Z,33.03
2022-08-18T04:14:33.475Z,34.23
2022-08-18T04:16:38.115Z,31.67
2022-08-18T04:18:41.804Z,34.33
2022-08-18T04:20:59.659Z,36.27
2022-08-18T04:22:51.793Z,33.40
2022-08-18T04:24:55.567Z,618.48
2022-08-18T04:29:20.512Z,603.55
2022-08-18T04:31:25.799Z,486.75
2022-08-18T04:33:29.952Z,632.58
2022-08-18T04:35:33.499Z,828.30
2022-08-18T04:37:39.779Z,802.00
2022-08-18T04:39:44.046Z,817.90
2022-08-18T04:41:48.101Z,784.15
2022-08-18T04:43:52.111Z,704.40
2022-08-18T04:45:57.484Z,803.65
2022-08-18T04:48:00.970Z,874.00
2022-08-18T04:50:05.432Z,863.83
2022-08-18T04:54:26.403Z,801.28
2022-08-18T04:56:34.112Z,852.88
2022-08-18T04:58:37.722Z,857.95
2022-08-18T05:00:43.123Z,880.78
2022-08-18T05:02:46.709Z,860.40
2022-08-18T05:04:50.341Z,812.15
2022-08-18T05:06:54.003Z,825.68
2022-08-18T05:09:00.209Z,820.65
2022-08-18T05:11:04.414Z,776.87
2022-08-18T05:13:09.161Z,633.67
2022-08-18T05:17:30.386Z,685.00
2022-08-18T05:19:35.121Z,438.87
2022-08-18T05:23:57.481Z,687.50
2022-08-18T05:26:03.039Z,698.97
2022-08-18T05:28:06.621Z,696.17
2022-08-18T05:30:12.428Z,870.23
2022-08-18T05:34:36.307Z,827.90
2022-08-18T05:37:03.465Z,631.67
2022-08-18T05:41:29.372Z,861.95
2022-08-18T05:43:33.163Z,880.60
2022-08-18T05:45:37.014Z,880.75
2022-08-18T05:47:40.585Z,895.55
2022-08-18T05:49:48.435Z,877.13
2022-08-18T05:51:55.038Z,812.90
2022-08-18T05:54:17.110Z,523.35
2022-08-18T05:58:41.669Z,718.63
2022-08-18T06:00:52.615Z,482.60
2022-08-18T06:03:00.717Z,220.33
2022-08-18T06:05:10.565Z,636.25
2022-08-18T06:07:16.937Z,656.25
2022-08-18T06:09:24.510Z,323.27
2022-08-18T06:11:28.120Z,598.88
2022-08-18T06:13:34.171Z,195.83
2022-08-18T06:15:42.605Z,764.52
2022-08-18T06:18:13.208Z,834.60
2022-08-18T06:22:52.454Z,862.57
2022-08-18T06:24:50.096Z,30.20
2022-08-18T06:26:59.179Z,36.60
2022-08-18T06:29:08.330Z,41.20
2022-08-18T06:31:15.978Z,36.43
2022-08-18T06:33:33.708Z,34.87
2022-08-18T06:35:40.130Z,34.10
2022-08-18T06:38:06.645Z,33.70
2022-08-18T06:40:10.316Z,36.47
2022-08-18T06:42:17.187Z,36.50
2022-08-18T06:46:48.895Z,39.83
2022-08-18T06:51:14.177Z,39.53
2022-08-18T06:53:18.912Z,35.47
2022-08-18T06:55:33.611Z,36.83
2022-08-18T06:57:40.255Z,39.17
2022-08-18T07:02:06.629Z,37.10
2022-08-18T07:06:30.810Z,39.00
2022-08-18T07:08:41.669Z,38.70
2022-08-18T07:10:49.481Z,37.67
2022-08-18T07:12:54.964Z,38.73
2022-08-18T07:15:00.330Z,41.53
2022-08-18T07:17:13.322Z,38.83
2022-08-18T07:19:19.888Z,38.13
2022-08-18T07:21:28.649Z,40.70
2022-08-18T07:23:34.482Z,40.07
2022-08-18T07:25:42.674Z,39.20
2022-08-18T07:27:49.168Z,38.63
2022-08-18T07:30:05.324Z,36.40
2022-08-18T07:32:21.496Z,36.33
2022-08-18T07:36:46.214Z,38.07
2022-08-18T07:38:53.843Z,37.77
2022-08-18T07:41:01.256Z,35.50
2022-08-18T07:43:08.588Z,37.50
2022-08-18T07:47:36.609Z,36.03
2022-08-18T07:49:59.634Z,42.87
2022-08-18T07:51:53.298Z,35.93
2022-08-18T07:53:59.611Z,36.90
2022-08-18T07:56:07.186Z,36.40
2022-08-18T07:58:18.009Z,34.97
2022-08-18T08:00:47.817Z,35.27
2022-08-18T08:02:38.052Z,35.43
2022-08-18T08:04:45.409Z,38.30
2022-08-18T08:07:22.450Z,35.07
2022-08-18T08:09:03.685Z,33.70
2022-08-18T08:11:23.597Z,34.87
2022-08-18T08:15:54.759Z,34.27
2022-08-18T08:18:02.009Z,35.13
2022-08-18T08:22:41.205Z,35.37
2022-08-18T08:24:48.920Z,37.20
2022-08-18T08:26:56.549Z,33.53
2022-08-18T08:29:06.410Z,34.67
2022-08-18T08:31:35.307Z,34.37
2022-08-18T08:35:48.787Z,38.20
2022-08-18T08:37:50.988Z,37.00
2022-08-18T08:39:58.220Z,37.50
2022-08-18T08:42:32.038Z,41.47
2022-08-18T08:46:35.785Z,36.50
2022-08-18T08:48:43.648Z,37.30
2022-08-18T08:50:50.875Z,37.27
2022-08-18T08:52:58.846Z,36.23
2022-08-18T08:55:05.576Z,35.40
2022-08-18T08:57:11.304Z,37.77
2022-08-18T08:59:17.697Z,38.37
2022-08-18T09:01:26.597Z,44.00
2022-08-18T09:03:36.988Z,38.97
2022-08-18T09:05:44.267Z,38.60
2022-08-18T09:08:02.188Z,34.03
2022-08-18T09:10:24.498Z,38.17
2022-08-18T09:12:48.961Z,35.70
2022-08-18T09:15:28.423Z,35.47
2022-08-18T09:17:57.193Z,29.47
2022-08-18T09:20:14.388Z,33.37
2022-08-18T09:22:23.593Z,33.60
2022-08-18T09:24:32.739Z,34.43
2022-08-18T09:26:46.517Z,32.80
2022-08-18T09:28:57.160Z,35.13
2022-08-18T09:31:19.674Z,35.57
2022-08-18T09:33:34.117Z,36.20
2022-08-18T09:38:26.047Z,42.93
2022-08-18T09:41:02.661Z,35.67
2022-08-18T09:42:56.641Z,33.50
2022-08-18T09:45:05.719Z,32.50
2022-08-18T09:49:47.592Z,32.03
2022-08-18T09:51:53.114Z,34.17
2022-08-18T09:54:21.257Z,34.40
2022-08-18T09:57:00.455Z,33.10
2022-08-18T09:59:10.894Z,29.83
2022-08-18T10:01:32.873Z,31.27
2022-08-18T10:03:36.996Z,31.17
2022-08-18T10:05:43.887Z,33.57
2022-08-18T10:07:50.181Z,30.47
2022-08-18T10:12:53.598Z,33.50
2022-08-18T10:15:33.374Z,31.33
2022-08-18T10:18:06.459Z,36.30
2022-08-18T10:22:42.703Z,29.70
2022-08-18T10:24:49.960Z,26.77
2022-08-18T10:27:04.677Z,36.20
2022-08-18T10:29:10.841Z,34.50
2022-08-18T10:31:15.124Z,33.87
2022-08-18T10:33:45.044Z,34.70
2022-08-18T10:35:59.436Z,30.83
2022-08-18T10:40:26.562Z,28.50
2022-08-18T10:42:33.362Z,31.87
2022-08-18T10:44:41.361Z,28.90
2022-08-18T10:51:59.064Z,32.17
2022-08-18T10:53:51.386Z,30.43
2022-08-18T10:56:01.345Z,33.70
2022-08-18T10:58:24.930Z,27.80
2022-08-18T11:03:08.018Z,28.00
2022-08-18T11:05:11.064Z,29.60
2022-08-18T11:07:19.087Z,27.27
2022-08-18T11:09:27.338Z,27.83
2022-08-18T11:13:57.349Z,28.17
2022-08-18T11:16:10.136Z,30.37
2022-08-18T11:18:20.066Z,29.40
2022-08-18T11:20:26.764Z,26.97
2022-08-18T11:22:35.558Z,27.27
2022-08-18T11:24:44.700Z,28.43
2022-08-18T11:26:52.446Z,27.63
2022-08-18T11:28:57.103Z,28.23
2022-08-18T11:31:01.081Z,29.27
2022-08-18T11:33:05.508Z,28.43
2022-08-18T11:35:18.437Z,30.13
2022-08-18T11:37:27.549Z,23.80
2022-08-18T11:41:48.458Z,24.57
2022-08-18T11:43:48.240Z,24.17
2022-08-18T11:45:57.444Z,28.07
2022-08-18T11:48:05.430Z,28.93
2022-08-18T11:52:34.796Z,30.23
2022-08-18T11:56:47.542Z,28.13
2022-08-18T11:58:53.871Z,28.87
2022-08-18T12:01:01.675Z,24.83
2022-08-18T12:03:05.224Z,28.70
2022-08-18T12:05:10.524Z,28.13
2022-08-18T12:11:33.008Z,30.67
2022-08-18T12:16:14.594Z,24.03
2022-08-18T12:23:00.122Z,25.30
2022-08-18T12:25:06.012Z,24.67
2022-08-18T12:29:18.576Z,28.70
2022-08-18T12:31:28.914Z,26.97
2022-08-18T12:33:34.523Z,26.70
2022-08-18T12:35:35.348Z,25.10
2022-08-18T12:38:03.598Z,30.00
2022-08-18T12:39:49.050Z,28.80
2022-08-18T12:41:53.283Z,28.47
2022-08-18T12:43:59.191Z,26.60
2022-08-18T12:46:02.277Z,27.73
2022-08-18T12:48:07.560Z,27.07
2022-08-18T12:50:11.817Z,25.83
2022-08-18T12:52:15.598Z,30.97
2022-08-18T12:54:21.988Z,28.67
2022-08-18T12:56:29.609Z,26.30
2022-08-18T12:58:36.475Z,26.47
2022-08-18T13:00:40.177Z,27.03
2022-08-18T13:02:43.703Z,24.50
2022-08-18T13:04:47.652Z,26.57
2022-08-18T13:07:00.335Z,26.00
2022-08-18T13:08:59.524Z,23.93
2022-08-18T13:11:13.302Z,23.47
2022-08-18T13:13:10.366Z,26.53
2022-08-18T13:15:13.868Z,25.73
2022-08-18T13:17:29.789Z,29.00
2022-08-18T13:19:23.511Z,28.97
2022-08-18T13:21:28.033Z,23.60
2022-08-18T13:23:33.441Z,23.83
2022-08-18T13:25:40.656Z,24.70
2022-08-18T13:27:45.290Z,26.80
2022-08-18T13:29:51.099Z,25.60
2022-08-18T13:31:57.760Z,25.50
2022-08-18T13:34:03.790Z,28.30
2022-08-18T13:36:07.639Z,30.03
2022-08-18T13:38:18.970Z,23.50
2022-08-18T13:40:18.343Z,23.90
2022-08-18T13:42:29.479Z,27.00
2022-08-18T13:44:28.575Z,23.30
2022-08-18T13:46:32.203Z,22.80
2022-08-18T13:48:36.940Z,22.83
2022-08-18T13:50:40.501Z,21.80
2022-08-18T13:52:45.600Z,22.40
2022-08-18T13:57:08.357Z,26.20
2022-08-18T13:59:12.106Z,23.80
2022-08-18T14:01:42.173Z,24.73
2022-08-18T14:05:51.392Z,26.60
2022-08-18T14:08:36.537Z,23.47
2022-08-18T14:13:01.221Z,23.03
2022-08-18T14:15:10.059Z,17.87
2022-08-18T14:17:13.937Z,20.07
2022-08-18T14:19:35.821Z,17.80
2022-08-18T14:22:11.347Z,17.37
2022-08-18T14:24:32.747Z,17.73
2022-08-18T14:26:50.727Z,17.10
2022-08-18T14:28:54.628Z,19.27
2022-08-18T14:30:58.479Z,17.83
2022-08-18T14:33:06.684Z,22.83
2022-08-18T14:35:33.947Z,20.60
2022-08-18T14:37:20.746Z,22.80
2022-08-18T14:39:25.879Z,22.33
2022-08-18T14:41:29.909Z,18.67
2022-08-18T14:43:53.870Z,20.40
2022-08-18T14:45:44.042Z,18.30
2022-08-18T14:47:50.315Z,19.93
2022-08-18T14:49:53.988Z,17.27
2022-08-18T14:52:00.959Z,17.10
2022-08-18T14:54:05.688Z,20.33
2022-08-18T14:56:11.074Z,17.33
2022-08-18T14:58:15.962Z,14.70
2022-08-18T15:00:22.621Z,16.63
2022-08-18T15:02:26.531Z,15.17
2022-08-18T15:04:30.124Z,14.73
2022-08-18T15:06:33.832Z,15.47
2022-08-18T15:08:40.091Z,12.97
2022-08-18T15:10:44.449Z,13.27
2022-08-18T15:12:49.726Z,12.53
2022-08-18T15:14:55.769Z,14.40
2022-08-18T15:16:59.094Z,12.60
2022-08-18T15:19:03.690Z,12.83
2022-08-18T15:21:35.201Z,12.90
2022-08-18T15:23:50.399Z,13.03
2022-08-18T15:25:55.460Z,13.03
2022-08-18T15:28:00.449Z,12.97
2022-08-18T15:30:06.462Z,11.80
2022-08-18T15:32:14.580Z,14.30
2022-08-18T15:34:20.902Z,12.30
2022-08-18T15:36:29.340Z,10.33
2022-08-18T15:38:29.731Z,12.87
2022-08-18T15:40:35.681Z,12.73
2022-08-18T15:42:40.707Z,15.07
2022-08-18T15:44:46.688Z,15.07
2022-08-18T15:46:53.243Z,17.93
2022-08-18T15:48:57.138Z,12.60
2022-08-18T15:51:11.477Z,13.67
2022-08-18T15:55:28.955Z,14.80
2022-08-18T15:57:40.115Z,15.07
2022-08-18T15:59:40.099Z,15.77
2022-08-18T16:01:45.448Z,16.07
2022-08-18T16:03:49.902Z,12.93
2022-08-18T16:05:56.084Z,13.10
2022-08-18T16:08:01.184Z,14.60
2022-08-18T16:10:06.114Z,14.80
2022-08-18T16:12:10.098Z,14.20
2022-08-18T16:14:14.844Z,12.90
2022-08-18T16:16:29.353Z,14.53
2022-08-18T16:18:27.000Z,13.53
2022-08-18T16:20:30.621Z,12.10
2022-08-18T16:22:34.524Z,11.77
2022-08-18T16:24:38.155Z,14.07
2022-08-18T16:26:41.746Z,13.87
2022-08-18T16:28:49.546Z,9.23
2022-08-18T16:30:54.227Z,14.33
2022-08-18T16:33:02.307Z,14.20
2022-08-18T16:35:08.356Z,14.70
2022-08-18T16:37:11.840Z,11.93
2022-08-18T16:39:15.469Z,11.13
2022-08-18T16:41:19.980Z,11.50
2022-08-18T16:43:23.747Z,12.97
2022-08-18T16:45:27.436Z,17.13
2022-08-18T16:47:33.669Z,14.20
2022-08-18T16:49:37.235Z,14.53
2022-08-18T16:51:41.259Z,13.23
2022-08-18T16:53:46.703Z,11.50
2022-08-18T16:55:50.606Z,12.43
2022-08-18T16:58:15.482Z,11.87
2022-08-18T17:00:38.223Z,12.50
2022-08-18T17:03:01.537Z,12.80
2022-08-18T17:05:26.729Z,12.47
2022-08-18T17:07:31.039Z,14.67
2022-08-18T17:09:36.229Z,15.90
2022-08-18T17:11:51.264Z,12.53
2022-08-18T17:13:48.197Z,14.97
2022-08-18T17:15:51.988Z,13.30
2022-08-18T17:17:55.764Z,12.33
2022-08-18T17:22:19.579Z,11.37
2022-08-18T17:24:31.835Z,10.37
2022-08-18T17:26:34.471Z,14.27
2022-08-18T17:28:50.205Z,10.60
2022-08-18T17:30:49.630Z,10.13
2022-08-18T17:32:56.496Z,11.97
2022-08-18T17:35:04.913Z,12.03
2022-08-18T17:37:12.464Z,11.23
2022-08-18T17:39:17.187Z,11.00
2022-08-18T17:41:22.548Z,14.70
2022-08-18T17:43:28.836Z,11.63
2022-08-18T17:45:35.436Z,11.07
2022-08-18T17:47:43.254Z,10.60
2022-08-18T17:50:27.309Z,11.47
2022-08-18T17:52:12.391Z,11.17
2022-08-18T17:54:19.049Z,10.77
2022-08-18T17:56:26.156Z,10.13
2022-08-18T17:58:37.707Z,10.77
2022-08-18T18:00:41.607Z,10.57
2022-08-18T18:02:47.019Z,10.50
2022-08-18T18:04:51.984Z,12.53
2022-08-18T18:09:19.603Z,11.87
2022-08-18T18:11:33.513Z,10.67
2022-08-18T18:13:38.856Z,13.47
2022-08-18T18:15:45.650Z,11.27
2022-08-18T18:17:49.238Z,8.73
2022-08-18T18:19:56.220Z,10.00
2022-08-18T18:24:24.026Z,10.70
2022-08-18T18:26:30.964Z,9.67
2022-08-18T18:28:37.019Z,11.07
2022-08-18T18:30:40.532Z,10.57
2022-08-18T18:32:59.406Z,9.40
2022-08-18T18:35:10.737Z,10.73
2022-08-18T18:37:26.770Z,11.23
2022-08-18T18:39:34.882Z,9.33
2022-08-18T18:41:40.200Z,11.97
2022-08-18T18:43:46.348Z,12.40
2022-08-18T18:48:52.010Z,12.43
2022-08-18T18:50:56.282Z,12.20
2022-08-18T18:53:13.112Z,11.57
2022-08-18T18:55:19.570Z,15.30
2022-08-18T18:57:29.452Z,13.40
2022-08-18T18:59:39.938Z,14.30
2022-08-18T19:01:49.817Z,13.63
2022-08-18T19:03:58.221Z,11.57
2022-08-18T19:06:14.792Z,11.50
2022-08-18T19:08:27.796Z,13.47
2022-08-18T19:10:36.883Z,12.53
2022-08-18T19:12:44.111Z,12.63
2022-08-18T19:14:59.735Z,12.70
2022-08-18T19:17:01.557Z,11.93
2022-08-18T19:19:37.081Z,12.63
2022-08-18T19:23:44.315Z,12.50
2022-08-18T19:25:46.727Z,10.53
2022-08-18T19:30:13.828Z,18.60
2022-08-18T19:32:20.844Z,13.07
2022-08-18T19:34:30.177Z,11.53
2022-08-18T19:36:37.531Z,11.77
2022-08-18T19:38:49.602Z,13.10
2022-08-18T19:40:58.156Z,13.17
2022-08-18T19:43:05.929Z,11.13
2022-08-18T19:47:34.800Z,13.43
2022-08-18T19:49:45.592Z,13.30
2022-08-18T19:51:53.644Z,23.30
2022-08-18T19:56:41.382Z,14.23
2022-08-18T19:59:15.062Z,16.03
2022-08-18T20:01:03.904Z,15.20
2022-08-18T20:03:23.792Z,14.37
2022-08-18T20:05:32.343Z,12.67
2022-08-18T20:13:33.144Z,13.30
2022-08-18T20:15:43.107Z,12.87
2022-08-18T20:18:05.939Z,14.00
2022-08-18T20:22:35.723Z,14.60
2022-08-18T20:24:45.254Z,11.40
2022-08-18T20:26:51.494Z,12.40
2022-08-18T20:28:55.501Z,13.77
2022-08-18T20:33:35.062Z,13.33
2022-08-18T20:35:41.468Z,12.00
2022-08-18T20:37:48.198Z,14.03
2022-08-18T20:39:54.205Z,11.57
2022-08-18T20:41:58.505Z,11.60
2022-08-18T20:46:33.894Z,11.70
2022-08-18T20:48:45.065Z,11.67
2022-08-18T20:51:10.837Z,11.47
2022-08-18T20:53:22.232Z,10.73
2022-08-18T20:55:30.760Z,11.40
2022-08-18T20:57:37.121Z,11.70
2022-08-18T20:59:44.635Z,12.07
2022-08-18T21:01:57.028Z,12.33
2022-08-18T21:04:00.959Z,12.07
2022-08-18T21:06:07.021Z,11.43
2022-08-18T21:08:20.719Z,11.00
2022-08-18T21:10:28.390Z,12.37
2022-08-18T21:12:33.939Z,11.17
2022-08-18T21:14:37.521Z,12.00
2022-08-18T21:16:44.487Z,11.87
2022-08-18T21:18:51.722Z,21.27
2022-08-18T21:20:57.572Z,17.67
2022-08-18T21:23:07.744Z,9.17
2022-08-18T21:25:14.000Z,13.00
2022-08-18T21:27:23.397Z,19.60
2022-08-18T21:29:44.306Z,14.80
2022-08-18T21:31:44.271Z,19.77
2022-08-18T21:33:43.160Z,21.43
2022-08-18T21:35:59.514Z,19.37
2022-08-18T21:38:06.299Z,19.10
2022-08-18T21:40:11.298Z,22.10
2022-08-18T21:44:40.135Z,23.43
2022-08-18T21:46:45.453Z,20.47
2022-08-18T21:48:51.802Z,19.43
2022-08-18T21:51:00.563Z,18.40
2022-08-18T21:53:07.156Z,19.97
2022-08-18T21:55:15.596Z,20.30
2022-08-18T21:57:22.731Z,19.73
2022-08-18T21:59:26.335Z,20.60
2022-08-18T22:01:30.972Z,20.70
2022-08-18T22:03:36.451Z,19.53
2022-08-18T22:05:59.057Z,19.07
2022-08-18T22:07:48.708Z,18.17
2022-08-18T22:10:18.499Z,18.30
2022-08-18T22:14:54.275Z,21.33
2022-08-18T22:16:51.020Z,19.23
2022-08-18T22:19:24.076Z,19.10
2022-08-18T22:21:38.120Z,19.40
2022-08-18T22:24:03.238Z,18.17
2022-08-18T22:26:11.792Z,18.80
2022-08-18T22:28:20.772Z,19.37
2022-08-18T22:30:24.669Z,19.83
2022-08-18T22:32:28.348Z,19.83
2022-08-18T22:34:33.820Z,18.20
2022-08-18T22:36:40.437Z,19.30
2022-08-18T22:38:44.877Z,19.27
2022-08-18T22:40:48.605Z,22.10
2022-08-18T22:42:52.281Z,21.50
2022-08-18T22:44:59.081Z,20.60
2022-08-18T22:47:03.308Z,18.57
2022-08-18T22:49:06.870Z,18.83
2022-08-18T22:51:12.351Z,20.17
2022-08-18T22:53:17.708Z,15.00
2022-08-18T22:57:40.055Z,11.87
2022-08-18T22:59:43.648Z,12.30
2022-08-18T23:01:50.679Z,11.43
2022-08-18T23:03:54.292Z,11.60
2022-08-18T23:05:57.800Z,12.23
2022-08-18T23:08:02.149Z,11.60
2022-08-18T23:10:08.312Z,11.77
2022-08-18T23:12:13.656Z,12.13
2022-08-18T23:16:35.186Z,12.00
2022-08-18T23:18:38.676Z,13.20
2022-08-18T23:20:42.248Z,12.13
2022-08-18T23:22:46.644Z,12.17
2022-08-18T23:24:50.269Z,12.40
2022-08-18T23:26:54.028Z,12.30
2022-08-18T23:28:57.827Z,12.50
2022-08-18T23:33:21.095Z,12.80
2022-08-18T23:35:24.891Z,12.90
2022-08-18T23:37:28.674Z,12.30
2022-08-18T23:39:33.764Z,12.63
2022-08-18T23:41:38.076Z,12.70
2022-08-18T23:43:41.852Z,12.83
2022-08-18T23:45:47.892Z,13.77
2022-08-18T23:47:52.373Z,13.53
2022-08-18T23:49:57.818Z,12.67
2022-08-18T23:52:01.373Z,12.73
2022-08-18T23:54:08.250Z,13.23
2022-08-18T23:56:11.784Z,13.10
2022-08-18T23:58:15.394Z,13.10
